sensor_id;sensor_type;location;lat;lon;timestamp;P1;durP1;ratioP1;P2;durP2;ratioP2
52057;SDS011;38063;53.210;6.504;2023-02-28T00:02:07;8.75;;;3.03;;
52057;SDS011;38063;53.210;6.504;2023-02-28T00:04:33;11.80;;;2.85;;
52057;SDS011;38063;53.210;6.504;2023-02-28T00:06:58;7.60;;;3.00;;
52057;SDS011;38063;53.210;6.504;2023-02-28T00:09:24;8.02;;;3.25;;
52057;SDS011;38063;53.210;6.504;2023-02-28T00:11:50;15.50;;;3.60;;
52057;SDS011;38063;53.210;6.504;2023-02-28T00:14:15;5.18;;;2.70;;
52057;SDS011;38063;53.210;6.504;2023-02-28T00:16:41;6.43;;;2.97;;
52057;SDS011;38063;53.210;6.504;2023-02-28T00:19:07;8.63;;;3.47;;
52057;SDS011;38063;53.210;6.504;2023-02-28T00:21:32;11.20;;;3.70;;
52057;SDS011;38063;53.210;6.504;2023-02-28T00:23:58;6.90;;;3.45;;
52057;SDS011;38063;53.210;6.504;2023-02-28T00:26:24;5.93;;;3.00;;
52057;SDS011;38063;53.210;6.504;2023-02-28T00:28:51;6.70;;;3.28;;
52057;SDS011;38063;53.210;6.504;2023-02-28T00:31:17;7.45;;;3.33;;
52057;SDS011;38063;53.210;6.504;2023-02-28T00:33:43;12.45;;;3.40;;
52057;SDS011;38063;53.210;6.504;2023-02-28T00:36:09;11.35;;;3.40;;
52057;SDS011;38063;53.210;6.504;2023-02-28T00:38:36;9.65;;;2.80;;
52057;SDS011;38063;53.210;6.504;2023-02-28T00:41:03;7.78;;;2.92;;
52057;SDS011;38063;53.210;6.504;2023-02-28T00:43:30;7.85;;;3.00;;
52057;SDS011;38063;53.210;6.504;2023-02-28T00:45:56;5.80;;;2.63;;
52057;SDS011;38063;53.210;6.504;2023-02-28T00:48:22;10.45;;;2.80;;
52057;SDS011;38063;53.210;6.504;2023-02-28T00:50:48;13.25;;;2.92;;
52057;SDS011;38063;53.210;6.504;2023-02-28T00:53:14;10.60;;;3.00;;
52057;SDS011;38063;53.210;6.504;2023-02-28T00:55:40;9.73;;;2.35;;
52057;SDS011;38063;53.210;6.504;2023-02-28T00:58:06;8.43;;;2.60;;
52057;SDS011;38063;53.210;6.504;2023-02-28T01:00:31;13.05;;;2.90;;
52057;SDS011;38063;53.210;6.504;2023-02-28T01:02:57;10.20;;;2.90;;
52057;SDS011;38063;53.210;6.504;2023-02-28T01:05:23;9.40;;;2.47;;
52057;SDS011;38063;53.210;6.504;2023-02-28T01:07:48;14.35;;;2.53;;
52057;SDS011;38063;53.210;6.504;2023-02-28T01:10:14;7.43;;;2.80;;
52057;SDS011;38063;53.210;6.504;2023-02-28T01:12:40;8.63;;;2.90;;
52057;SDS011;38063;53.210;6.504;2023-02-28T01:15:06;6.93;;;2.67;;
52057;SDS011;38063;53.210;6.504;2023-02-28T01:17:34;9.15;;;2.80;;
52057;SDS011;38063;53.210;6.504;2023-02-28T01:20:01;6.97;;;3.00;;
52057;SDS011;38063;53.210;6.504;2023-02-28T01:22:26;8.68;;;2.83;;
52057;SDS011;38063;53.210;6.504;2023-02-28T01:24:53;10.48;;;2.80;;
52057;SDS011;38063;53.210;6.504;2023-02-28T01:27:19;6.68;;;2.75;;
52057;SDS011;38063;53.210;6.504;2023-02-28T01:29:44;11.05;;;2.97;;
52057;SDS011;38063;53.210;6.504;2023-02-28T01:32:10;9.45;;;2.72;;
52057;SDS011;38063;53.210;6.504;2023-02-28T01:34:36;6.63;;;2.72;;
52057;SDS011;38063;53.210;6.504;2023-02-28T01:37:01;7.55;;;2.60;;
52057;SDS011;38063;53.210;6.504;2023-02-28T01:39:28;10.13;;;2.70;;
52057;SDS011;38063;53.210;6.504;2023-02-28T01:41:54;13.85;;;2.80;;
52057;SDS011;38063;53.210;6.504;2023-02-28T01:47:23;7.22;;;2.70;;
52057;SDS011;38063;53.210;6.504;2023-02-28T01:49:55;7.13;;;2.47;;
52057;SDS011;38063;53.210;6.504;2023-02-28T01:52:22;10.25;;;2.70;;
52057;SDS011;38063;53.210;6.504;2023-02-28T01:54:51;9.93;;;2.83;;
52057;SDS011;38063;53.210;6.504;2023-02-28T01:57:20;8.05;;;2.83;;
52057;SDS011;38063;53.210;6.504;2023-02-28T02:02:19;8.88;;;2.53;;
52057;SDS011;38063;53.210;6.504;2023-02-28T02:05:08;9.23;;;3.08;;
52057;SDS011;38063;53.210;6.504;2023-02-28T02:07:37;11.15;;;2.80;;
52057;SDS011;38063;53.210;6.504;2023-02-28T02:10:09;7.50;;;2.60;;
52057;SDS011;38063;53.210;6.504;2023-02-28T02:12:48;10.50;;;2.55;;
52057;SDS011;38063;53.210;6.504;2023-02-28T02:15:24;7.63;;;3.70;;
52057;SDS011;38063;53.210;6.504;2023-02-28T02:17:57;9.50;;;2.67;;
52057;SDS011;38063;53.210;6.504;2023-02-28T02:23:25;12.63;;;2.67;;
52057;SDS011;38063;53.210;6.504;2023-02-28T02:40:30;8.93;;;2.50;;
52057;SDS011;38063;53.210;6.504;2023-02-28T02:45:33;7.72;;;2.67;;
52057;SDS011;38063;53.210;6.504;2023-02-28T02:48:05;7.82;;;2.40;;
52057;SDS011;38063;53.210;6.504;2023-02-28T02:50:36;6.60;;;2.60;;
52057;SDS011;38063;53.210;6.504;2023-02-28T02:53:04;8.52;;;2.50;;
52057;SDS011;38063;53.210;6.504;2023-02-28T02:55:32;6.55;;;2.70;;
52057;SDS011;38063;53.210;6.504;2023-02-28T02:58:03;11.05;;;2.40;;
52057;SDS011;38063;53.210;6.504;2023-02-28T03:00:34;9.85;;;2.70;;
52057;SDS011;38063;53.210;6.504;2023-02-28T03:03:03;9.18;;;3.30;;
52057;SDS011;38063;53.210;6.504;2023-02-28T03:05:33;7.35;;;3.22;;
52057;SDS011;38063;53.210;6.504;2023-02-28T03:08:08;8.77;;;3.15;;
52057;SDS011;38063;53.210;6.504;2023-02-28T03:15:42;11.65;;;3.00;;
52057;SDS011;38063;53.210;6.504;2023-02-28T03:18:24;9.88;;;3.00;;
52057;SDS011;38063;53.210;6.504;2023-02-28T03:23:57;5.55;;;2.40;;
52057;SDS011;38063;53.210;6.504;2023-02-28T03:26:26;8.85;;;3.42;;
52057;SDS011;38063;53.210;6.504;2023-02-28T03:29:02;12.93;;;3.53;;
52057;SDS011;38063;53.210;6.504;2023-02-28T03:31:48;11.25;;;3.47;;
52057;SDS011;38063;53.210;6.504;2023-02-28T03:34:22;13.27;;;4.68;;
52057;SDS011;38063;53.210;6.504;2023-02-28T03:37:08;9.45;;;4.05;;
52057;SDS011;38063;53.210;6.504;2023-02-28T03:40:00;12.05;;;4.22;;
52057;SDS011;38063;53.210;6.504;2023-02-28T03:42:29;14.65;;;6.10;;
52057;SDS011;38063;53.210;6.504;2023-02-28T03:44:57;11.60;;;6.65;;
52057;SDS011;38063;53.210;6.504;2023-02-28T03:47:55;13.40;;;6.88;;
52057;SDS011;38063;53.210;6.504;2023-02-28T03:50:29;15.95;;;7.93;;
52057;SDS011;38063;53.210;6.504;2023-02-28T03:53:02;17.52;;;8.82;;
52057;SDS011;38063;53.210;6.504;2023-02-28T03:56:22;14.73;;;8.02;;
52057;SDS011;38063;53.210;6.504;2023-02-28T04:01:41;16.52;;;8.25;;
52057;SDS011;38063;53.210;6.504;2023-02-28T04:04:09;16.65;;;7.35;;
52057;SDS011;38063;53.210;6.504;2023-02-28T04:06:36;12.63;;;7.35;;
52057;SDS011;38063;53.210;6.504;2023-02-28T04:09:02;14.23;;;6.88;;
52057;SDS011;38063;53.210;6.504;2023-02-28T04:14:00;14.13;;;7.50;;
52057;SDS011;38063;53.210;6.504;2023-02-28T04:16:29;11.93;;;6.60;;
52057;SDS011;38063;53.210;6.504;2023-02-28T04:18:55;13.90;;;7.15;;
52057;SDS011;38063;53.210;6.504;2023-02-28T04:21:30;10.90;;;7.22;;
52057;SDS011;38063;53.210;6.504;2023-02-28T04:23:57;12.18;;;7.75;;
52057;SDS011;38063;53.210;6.504;2023-02-28T04:26:27;14.63;;;6.93;;
52057;SDS011;38063;53.210;6.504;2023-02-28T04:29:05;13.30;;;8.02;;
52057;SDS011;38063;53.210;6.504;2023-02-28T04:31:31;14.45;;;7.20;;
52057;SDS011;38063;53.210;6.504;2023-02-28T04:33:57;12.75;;;7.57;;
52057;SDS011;38063;53.210;6.504;2023-02-28T04:36:22;16.45;;;7.80;;
52057;SDS011;38063;53.210;6.504;2023-02-28T04:38:49;16.33;;;7.53;;
52057;SDS011;38063;53.210;6.504;2023-02-28T04:41:15;13.15;;;7.38;;
52057;SDS011;38063;53.210;6.504;2023-02-28T04:43:41;11.05;;;7.00;;
52057;SDS011;38063;53.210;6.504;2023-02-28T04:46:07;9.82;;;6.30;;
52057;SDS011;38063;53.210;6.504;2023-02-28T04:48:34;12.52;;;7.40;;
52057;SDS011;38063;53.210;6.504;2023-02-28T04:51:02;8.68;;;6.18;;
52057;SDS011;38063;53.210;6.504;2023-02-28T04:53:29;10.82;;;5.85;;
52057;SDS011;38063;53.210;6.504;2023-02-28T04:55:55;10.68;;;5.57;;
52057;SDS011;38063;53.210;6.504;2023-02-28T04:58:22;10.30;;;6.07;;
52057;SDS011;38063;53.210;6.504;2023-02-28T05:00:52;8.95;;;5.05;;
52057;SDS011;38063;53.210;6.504;2023-02-28T05:03:18;7.43;;;5.07;;
52057;SDS011;38063;53.210;6.504;2023-02-28T05:05:45;11.35;;;6.20;;
52057;SDS011;38063;53.210;6.504;2023-02-28T05:08:12;13.40;;;5.50;;
52057;SDS011;38063;53.210;6.504;2023-02-28T05:10:37;10.25;;;5.50;;
52057;SDS011;38063;53.210;6.504;2023-02-28T05:13:03;10.60;;;6.00;;
52057;SDS011;38063;53.210;6.504;2023-02-28T05:15:29;12.38;;;5.47;;
52057;SDS011;38063;53.210;6.504;2023-02-28T05:17:55;10.30;;;5.55;;
52057;SDS011;38063;53.210;6.504;2023-02-28T05:20:20;11.73;;;5.97;;
52057;SDS011;38063;53.210;6.504;2023-02-28T05:22:46;10.90;;;6.13;;
52057;SDS011;38063;53.210;6.504;2023-02-28T05:25:15;10.77;;;5.60;;
52057;SDS011;38063;53.210;6.504;2023-02-28T05:27:44;10.93;;;5.93;;
52057;SDS011;38063;53.210;6.504;2023-02-28T05:30:09;9.95;;;5.80;;
52057;SDS011;38063;53.210;6.504;2023-02-28T05:32:36;10.18;;;5.68;;
52057;SDS011;38063;53.210;6.504;2023-02-28T05:35:03;11.60;;;6.05;;
52057;SDS011;38063;53.210;6.504;2023-02-28T05:37:28;10.73;;;6.38;;
52057;SDS011;38063;53.210;6.504;2023-02-28T05:39:54;11.50;;;6.68;;
52057;SDS011;38063;53.210;6.504;2023-02-28T05:42:20;10.63;;;6.60;;
52057;SDS011;38063;53.210;6.504;2023-02-28T05:44:46;13.45;;;6.53;;
52057;SDS011;38063;53.210;6.504;2023-02-28T05:47:11;11.98;;;6.78;;
52057;SDS011;38063;53.210;6.504;2023-02-28T05:49:40;13.02;;;6.82;;
52057;SDS011;38063;53.210;6.504;2023-02-28T05:52:06;11.13;;;6.80;;
52057;SDS011;38063;53.210;6.504;2023-02-28T05:54:32;13.65;;;7.30;;
52057;SDS011;38063;53.210;6.504;2023-02-28T05:56:58;11.00;;;6.65;;
52057;SDS011;38063;53.210;6.504;2023-02-28T05:59:24;13.32;;;7.22;;
52057;SDS011;38063;53.210;6.504;2023-02-28T06:01:49;11.60;;;7.78;;
52057;SDS011;38063;53.210;6.504;2023-02-28T06:04:17;14.43;;;7.78;;
52057;SDS011;38063;53.210;6.504;2023-02-28T06:06:45;12.00;;;7.72;;
52057;SDS011;38063;53.210;6.504;2023-02-28T06:09:11;12.70;;;7.03;;
52057;SDS011;38063;53.210;6.504;2023-02-28T06:11:37;10.23;;;6.88;;
52057;SDS011;38063;53.210;6.504;2023-02-28T06:14:03;12.43;;;6.80;;
52057;SDS011;38063;53.210;6.504;2023-02-28T06:16:29;12.93;;;7.25;;
52057;SDS011;38063;53.210;6.504;2023-02-28T06:19:00;10.68;;;7.18;;
52057;SDS011;38063;53.210;6.504;2023-02-28T06:21:28;13.77;;;7.43;;
52057;SDS011;38063;53.210;6.504;2023-02-28T06:23:55;10.57;;;7.28;;
52057;SDS011;38063;53.210;6.504;2023-02-28T06:26:21;11.80;;;6.70;;
52057;SDS011;38063;53.210;6.504;2023-02-28T06:28:47;15.18;;;7.75;;
52057;SDS011;38063;53.210;6.504;2023-02-28T06:31:14;11.63;;;7.85;;
52057;SDS011;38063;53.210;6.504;2023-02-28T06:33:41;11.38;;;7.20;;
52057;SDS011;38063;53.210;6.504;2023-02-28T06:36:08;11.55;;;7.18;;
52057;SDS011;38063;53.210;6.504;2023-02-28T06:38:36;12.02;;;7.50;;
52057;SDS011;38063;53.210;6.504;2023-02-28T06:41:02;13.73;;;7.07;;
52057;SDS011;38063;53.210;6.504;2023-02-28T06:43:29;12.55;;;7.47;;
52057;SDS011;38063;53.210;6.504;2023-02-28T06:45:56;14.95;;;9.15;;
52057;SDS011;38063;53.210;6.504;2023-02-28T06:48:24;17.05;;;8.70;;
52057;SDS011;38063;53.210;6.504;2023-02-28T06:50:52;14.95;;;8.48;;
52057;SDS011;38063;53.210;6.504;2023-02-28T06:53:25;17.60;;;8.80;;
52057;SDS011;38063;53.210;6.504;2023-02-28T06:55:51;14.55;;;9.23;;
52057;SDS011;38063;53.210;6.504;2023-02-28T06:58:17;14.38;;;9.55;;
52057;SDS011;38063;53.210;6.504;2023-02-28T07:00:44;17.65;;;9.65;;
52057;SDS011;38063;53.210;6.504;2023-02-28T07:03:11;17.10;;;9.60;;
52057;SDS011;38063;53.210;6.504;2023-02-28T07:05:38;19.70;;;9.82;;
52057;SDS011;38063;53.210;6.504;2023-02-28T07:08:05;17.50;;;9.93;;
52057;SDS011;38063;53.210;6.504;2023-02-28T07:10:31;17.70;;;10.23;;
52057;SDS011;38063;53.210;6.504;2023-02-28T07:12:58;20.00;;;10.82;;
52057;SDS011;38063;53.210;6.504;2023-02-28T07:15:25;22.15;;;10.95;;
52057;SDS011;38063;53.210;6.504;2023-02-28T07:17:50;17.65;;;10.45;;
52057;SDS011;38063;53.210;6.504;2023-02-28T07:20:16;18.10;;;10.55;;
52057;SDS011;38063;53.210;6.504;2023-02-28T07:22:42;20.48;;;10.55;;
52057;SDS011;38063;53.210;6.504;2023-02-28T07:25:08;19.00;;;10.25;;
52057;SDS011;38063;53.210;6.504;2023-02-28T07:27:34;18.60;;;9.55;;
52057;SDS011;38063;53.210;6.504;2023-02-28T07:30:00;16.65;;;10.27;;
52057;SDS011;38063;53.210;6.504;2023-02-28T07:32:27;20.30;;;10.82;;
52057;SDS011;38063;53.210;6.504;2023-02-28T07:34:53;17.33;;;10.73;;
52057;SDS011;38063;53.210;6.504;2023-02-28T07:37:19;19.20;;;9.35;;
52057;SDS011;38063;53.210;6.504;2023-02-28T07:39:44;16.73;;;9.77;;
52057;SDS011;38063;53.210;6.504;2023-02-28T07:42:10;19.08;;;10.45;;
52057;SDS011;38063;53.210;6.504;2023-02-28T07:44:37;15.77;;;10.10;;
52057;SDS011;38063;53.210;6.504;2023-02-28T07:47:08;18.00;;;9.98;;
52057;SDS011;38063;53.210;6.504;2023-02-28T07:49:35;16.95;;;9.25;;
52057;SDS011;38063;53.210;6.504;2023-02-28T07:52:02;17.98;;;9.63;;
52057;SDS011;38063;53.210;6.504;2023-02-28T07:54:32;17.42;;;9.77;;
52057;SDS011;38063;53.210;6.504;2023-02-28T07:56:58;17.65;;;10.13;;
52057;SDS011;38063;53.210;6.504;2023-02-28T07:59:24;19.20;;;10.65;;
52057;SDS011;38063;53.210;6.504;2023-02-28T08:01:50;20.90;;;10.88;;
52057;SDS011;38063;53.210;6.504;2023-02-28T08:04:16;20.50;;;10.63;;
52057;SDS011;38063;53.210;6.504;2023-02-28T08:06:43;18.77;;;10.65;;
52057;SDS011;38063;53.210;6.504;2023-02-28T08:09:08;16.55;;;10.68;;
52057;SDS011;38063;53.210;6.504;2023-02-28T08:11:34;18.02;;;10.27;;
52057;SDS011;38063;53.210;6.504;2023-02-28T08:14:01;18.88;;;11.30;;
52057;SDS011;38063;53.210;6.504;2023-02-28T08:16:27;18.73;;;10.32;;
52057;SDS011;38063;53.210;6.504;2023-02-28T08:18:52;19.05;;;10.60;;
52057;SDS011;38063;53.210;6.504;2023-02-28T08:21:18;19.67;;;10.07;;
52057;SDS011;38063;53.210;6.504;2023-02-28T08:23:48;17.50;;;9.70;;
52057;SDS011;38063;53.210;6.504;2023-02-28T08:26:18;18.05;;;10.38;;
52057;SDS011;38063;53.210;6.504;2023-02-28T08:28:45;15.48;;;9.45;;
52057;SDS011;38063;53.210;6.504;2023-02-28T08:31:11;16.60;;;9.65;;
52057;SDS011;38063;53.210;6.504;2023-02-28T08:33:39;16.80;;;10.55;;
52057;SDS011;38063;53.210;6.504;2023-02-28T08:36:06;18.25;;;10.68;;
52057;SDS011;38063;53.210;6.504;2023-02-28T08:38:33;17.85;;;10.50;;
52057;SDS011;38063;53.210;6.504;2023-02-28T08:41:00;20.13;;;10.85;;
52057;SDS011;38063;53.210;6.504;2023-02-28T08:43:28;18.35;;;9.30;;
52057;SDS011;38063;53.210;6.504;2023-02-28T08:45:54;19.67;;;10.90;;
52057;SDS011;38063;53.210;6.504;2023-02-28T08:48:22;19.73;;;10.50;;
52057;SDS011;38063;53.210;6.504;2023-02-28T08:50:55;23.75;;;10.63;;
52057;SDS011;38063;53.210;6.504;2023-02-28T08:53:21;19.27;;;10.27;;
52057;SDS011;38063;53.210;6.504;2023-02-28T08:55:46;23.08;;;11.63;;
52057;SDS011;38063;53.210;6.504;2023-02-28T08:58:12;23.02;;;11.35;;
52057;SDS011;38063;53.210;6.504;2023-02-28T09:00:38;18.38;;;10.95;;
52057;SDS011;38063;53.210;6.504;2023-02-28T09:03:04;18.48;;;10.45;;
52057;SDS011;38063;53.210;6.504;2023-02-28T09:05:29;23.63;;;11.32;;
52057;SDS011;38063;53.210;6.504;2023-02-28T09:07:55;15.25;;;10.48;;
52057;SDS011;38063;53.210;6.504;2023-02-28T09:10:20;20.90;;;10.95;;
52057;SDS011;38063;53.210;6.504;2023-02-28T09:12:46;14.45;;;9.57;;
52057;SDS011;38063;53.210;6.504;2023-02-28T09:15:12;18.65;;;10.43;;
52057;SDS011;38063;53.210;6.504;2023-02-28T09:17:38;17.80;;;9.95;;
52057;SDS011;38063;53.210;6.504;2023-02-28T09:20:04;16.08;;;9.43;;
52057;SDS011;38063;53.210;6.504;2023-02-28T09:22:30;15.45;;;9.70;;
52057;SDS011;38063;53.210;6.504;2023-02-28T09:24:56;16.33;;;9.52;;
52057;SDS011;38063;53.210;6.504;2023-02-28T09:27:21;16.98;;;10.40;;
52057;SDS011;38063;53.210;6.504;2023-02-28T09:29:47;18.67;;;10.05;;
52057;SDS011;38063;53.210;6.504;2023-02-28T09:32:13;15.18;;;9.13;;
52057;SDS011;38063;53.210;6.504;2023-02-28T09:34:38;14.77;;;9.70;;
52057;SDS011;38063;53.210;6.504;2023-02-28T09:37:04;15.63;;;9.20;;
52057;SDS011;38063;53.210;6.504;2023-02-28T09:39:30;18.23;;;9.73;;
52057;SDS011;38063;53.210;6.504;2023-02-28T09:41:57;16.85;;;9.50;;
52057;SDS011;38063;53.210;6.504;2023-02-28T09:44:30;14.18;;;8.80;;
52057;SDS011;38063;53.210;6.504;2023-02-28T09:49:41;12.85;;;8.15;;
52057;SDS011;38063;53.210;6.504;2023-02-28T09:52:13;16.52;;;9.77;;
52057;SDS011;38063;53.210;6.504;2023-02-28T09:54:44;14.63;;;9.05;;
52057;SDS011;38063;53.210;6.504;2023-02-28T10:02:54;18.75;;;9.98;;
52057;SDS011;38063;53.210;6.504;2023-02-28T10:05:47;15.65;;;9.30;;
52057;SDS011;38063;53.210;6.504;2023-02-28T10:08:36;13.45;;;8.60;;
52057;SDS011;38063;53.210;6.504;2023-02-28T10:11:11;14.73;;;8.52;;
52057;SDS011;38063;53.210;6.504;2023-02-28T10:13:49;13.35;;;7.35;;
52057;SDS011;38063;53.210;6.504;2023-02-28T10:21:47;15.32;;;8.98;;
52057;SDS011;38063;53.210;6.504;2023-02-28T10:24:30;15.38;;;8.00;;
52057;SDS011;38063;53.210;6.504;2023-02-28T10:27:01;15.60;;;9.23;;
52057;SDS011;38063;53.210;6.504;2023-02-28T10:29:42;13.50;;;8.27;;
52057;SDS011;38063;53.210;6.504;2023-02-28T10:32:11;14.05;;;7.53;;
52057;SDS011;38063;53.210;6.504;2023-02-28T10:34:41;13.15;;;7.43;;
52057;SDS011;38063;53.210;6.504;2023-02-28T10:37:07;11.05;;;7.35;;
52057;SDS011;38063;53.210;6.504;2023-02-28T10:39:36;13.30;;;7.32;;
52057;SDS011;38063;53.210;6.504;2023-02-28T10:42:18;12.85;;;7.25;;
52057;SDS011;38063;53.210;6.504;2023-02-28T10:45:03;14.02;;;7.80;;
52057;SDS011;38063;53.210;6.504;2023-02-28T10:47:37;15.18;;;7.05;;
52057;SDS011;38063;53.210;6.504;2023-02-28T10:50:28;12.50;;;6.53;;
52057;SDS011;38063;53.210;6.504;2023-02-28T10:52:54;10.95;;;6.47;;
52057;SDS011;38063;53.210;6.504;2023-02-28T10:55:21;10.43;;;6.95;;
52057;SDS011;38063;53.210;6.504;2023-02-28T10:57:50;12.35;;;6.05;;
52057;SDS011;38063;53.210;6.504;2023-02-28T11:00:22;10.82;;;6.35;;
52057;SDS011;38063;53.210;6.504;2023-02-28T11:02:50;11.32;;;5.93;;
52057;SDS011;38063;53.210;6.504;2023-02-28T11:05:32;9.30;;;4.78;;
52057;SDS011;38063;53.210;6.504;2023-02-28T11:08:12;7.97;;;4.82;;
52057;SDS011;38063;53.210;6.504;2023-02-28T11:10:44;9.07;;;5.13;;
52057;SDS011;38063;53.210;6.504;2023-02-28T11:13:25;8.38;;;4.55;;
52057;SDS011;38063;53.210;6.504;2023-02-28T11:15:55;10.65;;;4.70;;
52057;SDS011;38063;53.210;6.504;2023-02-28T11:20:55;9.18;;;4.63;;
52057;SDS011;38063;53.210;6.504;2023-02-28T11:23:25;9.35;;;4.43;;
52057;SDS011;38063;53.210;6.504;2023-02-28T11:25:52;8.80;;;5.05;;
52057;SDS011;38063;53.210;6.504;2023-02-28T11:28:24;8.13;;;4.63;;
52057;SDS011;38063;53.210;6.504;2023-02-28T11:33:51;8.98;;;4.97;;
52057;SDS011;38063;53.210;6.504;2023-02-28T11:36:22;7.13;;;4.88;;
52057;SDS011;38063;53.210;6.504;2023-02-28T11:38:50;9.40;;;4.63;;
52057;SDS011;38063;53.210;6.504;2023-02-28T11:41:29;7.63;;;3.28;;
52057;SDS011;38063;53.210;6.504;2023-02-28T11:44:32;4.55;;;3.15;;
52057;SDS011;38063;53.210;6.504;2023-02-28T11:52:52;7.25;;;3.63;;
52057;SDS011;38063;53.210;6.504;2023-02-28T12:00:59;5.78;;;3.65;;
52057;SDS011;38063;53.210;6.504;2023-02-28T12:03:54;6.70;;;3.90;;
52057;SDS011;38063;53.210;6.504;2023-02-28T12:06:31;6.13;;;4.47;;
52057;SDS011;38063;53.210;6.504;2023-02-28T12:09:10;7.13;;;3.83;;
52057;SDS011;38063;53.210;6.504;2023-02-28T12:14:34;6.72;;;4.07;;
52057;SDS011;38063;53.210;6.504;2023-02-28T12:17:12;7.35;;;4.30;;
52057;SDS011;38063;53.210;6.504;2023-02-28T12:20:08;6.15;;;3.97;;
52057;SDS011;38063;53.210;6.504;2023-02-28T12:28:12;7.88;;;4.30;;
52057;SDS011;38063;53.210;6.504;2023-02-28T12:30:42;8.27;;;4.25;;
52057;SDS011;38063;53.210;6.504;2023-02-28T12:33:22;7.40;;;4.43;;
52057;SDS011;38063;53.210;6.504;2023-02-28T12:35:56;6.95;;;4.28;;
52057;SDS011;38063;53.210;6.504;2023-02-28T12:38:25;8.90;;;4.18;;
52057;SDS011;38063;53.210;6.504;2023-02-28T12:40:55;6.18;;;4.18;;
52057;SDS011;38063;53.210;6.504;2023-02-28T12:43:34;6.60;;;3.87;;
52057;SDS011;38063;53.210;6.504;2023-02-28T12:46:15;6.85;;;3.53;;
52057;SDS011;38063;53.210;6.504;2023-02-28T12:48:46;8.95;;;3.80;;
52057;SDS011;38063;53.210;6.504;2023-02-28T12:51:16;6.00;;;3.90;;
52057;SDS011;38063;53.210;6.504;2023-02-28T12:53:47;7.20;;;4.00;;
52057;SDS011;38063;53.210;6.504;2023-02-28T12:56:28;6.57;;;4.13;;
52057;SDS011;38063;53.210;6.504;2023-02-28T13:10:23;7.40;;;4.05;;
52057;SDS011;38063;53.210;6.504;2023-02-28T13:12:50;7.97;;;4.60;;
52057;SDS011;38063;53.210;6.504;2023-02-28T13:15:25;7.10;;;4.22;;
52057;SDS011;38063;53.210;6.504;2023-02-28T13:17:57;6.33;;;4.50;;
52057;SDS011;38063;53.210;6.504;2023-02-28T13:20:33;6.95;;;4.45;;
52057;SDS011;38063;53.210;6.504;2023-02-28T13:23:01;7.57;;;3.90;;
52057;SDS011;38063;53.210;6.504;2023-02-28T13:27:59;7.53;;;4.30;;
52057;SDS011;38063;53.210;6.504;2023-02-28T13:38:37;7.88;;;4.35;;
52057;SDS011;38063;53.210;6.504;2023-02-28T13:46:24;7.38;;;4.47;;
52057;SDS011;38063;53.210;6.504;2023-02-28T13:48:50;7.03;;;4.45;;
52057;SDS011;38063;53.210;6.504;2023-02-28T13:54:21;6.97;;;4.30;;
52057;SDS011;38063;53.210;6.504;2023-02-28T13:57:21;8.68;;;4.32;;
52057;SDS011;38063;53.210;6.504;2023-02-28T14:03:42;7.80;;;4.25;;
52057;SDS011;38063;53.210;6.504;2023-02-28T14:06:30;7.30;;;4.65;;
52057;SDS011;38063;53.210;6.504;2023-02-28T14:08:59;9.55;;;4.50;;
52057;SDS011;38063;53.210;6.504;2023-02-28T14:11:32;8.38;;;4.65;;
52057;SDS011;38063;53.210;6.504;2023-02-28T14:14:00;7.93;;;4.57;;
52057;SDS011;38063;53.210;6.504;2023-02-28T14:16:28;6.10;;;4.47;;
52057;SDS011;38063;53.210;6.504;2023-02-28T14:21:52;10.38;;;5.00;;
52057;SDS011;38063;53.210;6.504;2023-02-28T14:27:21;6.95;;;4.95;;
52057;SDS011;38063;53.210;6.504;2023-02-28T14:35:35;7.47;;;4.97;;
52057;SDS011;38063;53.210;6.504;2023-02-28T14:37:54;7.78;;;4.88;;
52057;SDS011;38063;53.210;6.504;2023-02-28T14:42:56;8.77;;;5.25;;
52057;SDS011;38063;53.210;6.504;2023-02-28T14:45:24;8.82;;;4.60;;
52057;SDS011;38063;53.210;6.504;2023-02-28T14:47:52;6.68;;;4.53;;
52057;SDS011;38063;53.210;6.504;2023-02-28T14:50:22;8.70;;;4.80;;
52057;SDS011;38063;53.210;6.504;2023-02-28T14:52:54;7.88;;;5.10;;
52057;SDS011;38063;53.210;6.504;2023-02-28T14:55:23;6.80;;;5.60;;
52057;SDS011;38063;53.210;6.504;2023-02-28T14:57:52;8.65;;;5.68;;
52057;SDS011;38063;53.210;6.504;2023-02-28T15:00:26;9.35;;;5.57;;
52057;SDS011;38063;53.210;6.504;2023-02-28T15:02:55;8.57;;;5.35;;
52057;SDS011;38063;53.210;6.504;2023-02-28T15:05:29;9.77;;;5.40;;
52057;SDS011;38063;53.210;6.504;2023-02-28T15:08:04;6.32;;;4.45;;
52057;SDS011;38063;53.210;6.504;2023-02-28T15:10:31;6.85;;;4.60;;
52057;SDS011;38063;53.210;6.504;2023-02-28T15:15:46;9.63;;;5.25;;
52057;SDS011;38063;53.210;6.504;2023-02-28T15:18:41;10.32;;;5.38;;
52057;SDS011;38063;53.210;6.504;2023-02-28T15:21:12;10.43;;;5.80;;
52057;SDS011;38063;53.210;6.504;2023-02-28T15:23:40;10.40;;;5.68;;
52057;SDS011;38063;53.210;6.504;2023-02-28T15:26:12;9.25;;;5.72;;
52057;SDS011;38063;53.210;6.504;2023-02-28T15:28:41;8.68;;;5.45;;
52057;SDS011;38063;53.210;6.504;2023-02-28T15:31:19;12.65;;;6.25;;
52057;SDS011;38063;53.210;6.504;2023-02-28T15:33:56;9.00;;;5.47;;
52057;SDS011;38063;53.210;6.504;2023-02-28T15:36:28;8.63;;;5.97;;
52057;SDS011;38063;53.210;6.504;2023-02-28T15:38:58;10.93;;;5.70;;
52057;SDS011;38063;53.210;6.504;2023-02-28T15:41:27;10.77;;;6.30;;
52057;SDS011;38063;53.210;6.504;2023-02-28T15:44:17;8.98;;;6.15;;
52057;SDS011;38063;53.210;6.504;2023-02-28T15:46:43;8.07;;;5.45;;
52057;SDS011;38063;53.210;6.504;2023-02-28T15:49:19;6.93;;;5.18;;
52057;SDS011;38063;53.210;6.504;2023-02-28T15:51:47;7.57;;;5.35;;
52057;SDS011;38063;53.210;6.504;2023-02-28T15:54:20;7.57;;;4.97;;
52057;SDS011;38063;53.210;6.504;2023-02-28T15:56:52;10.57;;;5.35;;
52057;SDS011;38063;53.210;6.504;2023-02-28T15:59:22;8.27;;;5.38;;
52057;SDS011;38063;53.210;6.504;2023-02-28T16:05:01;9.02;;;5.22;;
52057;SDS011;38063;53.210;6.504;2023-02-28T16:07:40;11.50;;;5.50;;
52057;SDS011;38063;53.210;6.504;2023-02-28T16:10:09;7.65;;;5.25;;
52057;SDS011;38063;53.210;6.504;2023-02-28T16:12:37;10.52;;;5.78;;
52057;SDS011;38063;53.210;6.504;2023-02-28T16:15:08;8.23;;;5.53;;
52057;SDS011;38063;53.210;6.504;2023-02-28T16:17:44;7.65;;;5.65;;
52057;SDS011;38063;53.210;6.504;2023-02-28T16:20:30;6.40;;;5.20;;
52057;SDS011;38063;53.210;6.504;2023-02-28T16:22:56;7.25;;;5.60;;
52057;SDS011;38063;53.210;6.504;2023-02-28T16:25:33;9.75;;;6.13;;
52057;SDS011;38063;53.210;6.504;2023-02-28T16:28:05;11.65;;;6.35;;
52057;SDS011;38063;53.210;6.504;2023-02-28T16:30:56;10.05;;;6.35;;
52057;SDS011;38063;53.210;6.504;2023-02-28T16:33:22;10.20;;;6.28;;
52057;SDS011;38063;53.210;6.504;2023-02-28T16:35:47;9.50;;;6.13;;
52057;SDS011;38063;53.210;6.504;2023-02-28T16:38:14;10.38;;;6.45;;
52057;SDS011;38063;53.210;6.504;2023-02-28T16:40:39;12.70;;;7.18;;
52057;SDS011;38063;53.210;6.504;2023-02-28T16:43:07;10.35;;;6.85;;
52057;SDS011;38063;53.210;6.504;2023-02-28T16:45:38;8.30;;;6.25;;
52057;SDS011;38063;53.210;6.504;2023-02-28T16:48:03;8.90;;;6.03;;
52057;SDS011;38063;53.210;6.504;2023-02-28T16:50:29;7.55;;;5.85;;
52057;SDS011;38063;53.210;6.504;2023-02-28T16:52:57;10.32;;;7.72;;
52057;SDS011;38063;53.210;6.504;2023-02-28T16:55:23;8.30;;;6.00;;
52057;SDS011;38063;53.210;6.504;2023-02-28T16:57:51;10.27;;;5.72;;
52057;SDS011;38063;53.210;6.504;2023-02-28T17:00:21;8.52;;;6.25;;
52057;SDS011;38063;53.210;6.504;2023-02-28T17:02:48;11.75;;;6.25;;
52057;SDS011;38063;53.210;6.504;2023-02-28T17:05:14;8.25;;;5.75;;
52057;SDS011;38063;53.210;6.504;2023-02-28T17:07:40;10.57;;;5.82;;